This is the latest recevied weather packets stored in our database for station/object E23JWE-1. If no packets are shown the sender has not sent any weather packets the latest 10 day(s).
| Time | Temp. | Humidity | Pressure | Rain* | Wind** | Luminosity | Snow |
|---|---|---|---|---|---|---|---|
| 1777734378 | 31.11° C | 84% | 1009 hPa | - | - | 0 W/m² | - |
| 1777732553 | 30.56° C | 89% | 1009 hPa | - | - | 0 W/m² | - |
| 1777730728 | 30.56° C | 88% | 1009 hPa | - | - | 0 W/m² | - |
| 1777728901 | 31.11° C | 91% | 1009 hPa | - | - | 0 W/m² | - |
| 1777727076 | 31.67° C | 90% | 1008 hPa | - | - | 0 W/m² | - |
| 1777725249 | 32.22° C | 84% | 1008 hPa | - | - | 0 W/m² | - |
| 1777723424 | 31.11° C | 99% | 1007 hPa | - | - | 0 W/m² | - |
| 1777721599 | 31.11° C | 99% | 1006 hPa | - | - | 0 W/m² | - |
| 1777719773 | 31.67° C | 97% | 1006 hPa | - | - | 6 W/m² | - |
| 1777717947 | 32.78° C | 86% | 1005 hPa | - | - | 26 W/m² | - |
| 1777716122 | 32.78° C | 85% | 1005 hPa | - | - | 41 W/m² | - |
| 1777714296 | 32.78° C | 81% | 1005 hPa | - | - | 48 W/m² | - |
| 1777712471 | 33.89° C | 74% | 1006 hPa | - | - | 54 W/m² | - |
| 1777710646 | 34.44° C | 68% | 1006 hPa | - | - | 55 W/m² | - |
| 1777708820 | 34.44° C | 72% | 1006 hPa | - | - | 53 W/m² | - |
| 1777706995 | 33.89° C | 72% | 1007 hPa | - | - | 46 W/m² | - |
| 1777705169 | 33.89° C | 77% | 1007 hPa | - | - | 44 W/m² | - |
| 1777703343 | 33.33° C | 80% | 1008 hPa | - | - | 44 W/m² | - |
| 1777701518 | 33.33° C | 82% | 1009 hPa | - | - | 43 W/m² | - |
| 1777699691 | 33.33° C | 85% | 1009 hPa | - | - | 40 W/m² | - |
| 1777697866 | 32.78° C | 86% | 1009 hPa | - | - | 39 W/m² | - |
| 1777696040 | 32.78° C | 88% | 1010 hPa | - | - | 33 W/m² | - |
| 1777694215 | 32.22° C | 94% | 1010 hPa | - | - | 23 W/m² | - |
| 1777692389 | 32.22° C | 91% | 1010 hPa | - | - | 29 W/m² | - |
| 1777690563 | 32.22° C | 95% | 1010 hPa | - | - | 27 W/m² | - |
* Rain since midnight (hover to see other rain measurements)
** Current wind speed in m/s (hover to see current wind gust speed)